Masvingo, Zimbabwe
Current Conditions -  °F | °C
As of 8:00 AM on Saturday 25 Oct 2014 (Local Time) from FVHA Reporting Station
Clear Clear  
Wind Chill: 77°   Ceiling: Unl
Heat Index: 78°   Visibility: 6mi
Dew Point: 54°   Wind: 16mph
Humidity: 44%   Direction: 70°ENE
Pressure: 30.18"   Gusts: NA
Location:  20.06°S, 30.82°E
Report Text: FVHA 250600Z 07014KT 040V100 CAVOK 25/12 Q1022 NOSIG RMK QFE 854.1
Loading
Personal Weather Stations






























Interactive Weather Map
Tropical Storm Tracking
New forecast layout! Learn more

10-Day Weather Forecast

Advertisements
Track Severe Weather on mobile